Time;durP1;ratioP1;P1;durP2;ratioP2;P2;SDS_P1;SDS_P2;PMS_P1;PMS_P2;Temp;Humidity;BMP_temperature;BMP_pressure;BME280_temperature;BME280_humidity;BME280_pressure;Samples;Min_cycle;Max_cycle;Signal;HPM_P1;HPM_P2
2021/09/22 00:02:01;;;;;;;30.38;13.27;;;;;;;;;;5053617;28;20029;-75
2021/09/22 00:04:26;;;;;;;22.08;10.77;;;;;;;;;;5053497;28;20496;-75
2021/09/22 00:06:51;;;;;;;25.92;12.32;;;;;;;;;;5053544;28;20024;-75
2021/09/22 00:09:17;;;;;;;35.55;12.20;;;;;;;;;;5053576;28;20070;-75
2021/09/22 00:11:42;;;;;;;24.73;11.18;;;;;;;;;;5052516;28;20045;-75
2021/09/22 00:14:07;;;;;;;27.10;12.18;;;;;;;;;;5053597;28;20028;-75
2021/09/22 00:16:33;;;;;;;26.65;11.55;;;;;;;;;;5053336;28;20040;-75
2021/09/22 00:18:58;;;;;;;27.95;11.77;;;;;;;;;;5053368;28;20029;-74
2021/09/22 00:21:23;;;;;;;24.80;11.57;;;;;;;;;;5053429;28;20016;-75
2021/09/22 00:23:49;;;;;;;22.98;11.25;;;;;;;;;;5053039;28;20033;-75
2021/09/22 00:26:14;;;;;;;27.30;12.40;;;;;;;;;;5052470;28;20020;-75
2021/09/22 00:28:39;;;;;;;24.88;12.25;;;;;;;;;;5053474;28;20094;-75
2021/09/22 00:31:05;;;;;;;26.63;12.15;;;;;;;;;;5052701;28;20040;-75
2021/09/22 00:33:30;;;;;;;28.40;12.35;;;;;;;;;;5051635;28;20053;-75
2021/09/22 00:35:55;;;;;;;32.50;12.68;;;;;;;;;;5053458;28;20505;-75
2021/09/22 00:38:21;;;;;;;23.27;10.80;;;;;;;;;;5053044;28;20086;-75
2021/09/22 00:40:47;;;;;;;29.05;12.90;;;;;;;;;;5053252;28;20029;-75
2021/09/22 00:43:13;;;;;;;24.45;12.45;;;;;;;;;;5053126;28;20021;-75
2021/09/22 00:45:38;;;;;;;36.83;13.45;;;;;;;;;;5051993;28;20479;-75
2021/09/22 00:48:03;;;;;;;23.05;10.77;;;;;;;;;;5052602;28;20029;-75
2021/09/22 00:50:29;;;;;;;30.63;12.65;;;;;;;;;;5050198;28;20033;-75
2021/09/22 00:52:54;;;;;;;23.73;11.30;;;;;;;;;;5051778;28;20519;-75
2021/09/22 00:55:19;;;;;;;22.63;11.52;;;;;;;;;;5052917;28;20037;-75
2021/09/22 00:57:55;;;;;;;29.08;12.35;;;;;;;;;;5051417;28;20393;-75
2021/09/22 01:00:22;;;;;;;33.28;11.90;;;;;;;;;;5053096;28;20099;-75
2021/09/22 01:02:47;;;;;;;40.92;13.63;;;;;;;;;;5052669;28;20025;-75
2021/09/22 01:05:17;;;;;;;25.80;11.75;;;;;;;;;;5052512;28;20120;-75
2021/09/22 01:07:42;;;;;;;28.65;12.45;;;;;;;;;;5052784;28;20021;-75
2021/09/22 01:10:08;;;;;;;30.17;11.68;;;;;;;;;;5052495;28;20104;-75
2021/09/22 01:12:33;;;;;;;24.55;12.18;;;;;;;;;;5052643;28;20127;-76
2021/09/22 01:14:58;;;;;;;31.25;12.23;;;;;;;;;;5052782;28;20036;-75
2021/09/22 01:17:26;;;;;;;31.52;12.70;;;;;;;;;;5052601;28;20421;-75
2021/09/22 01:19:51;;;;;;;32.70;12.35;;;;;;;;;;5052625;28;20033;-75
2021/09/22 01:22:18;;;;;;;29.52;11.00;;;;;;;;;;5052654;28;20033;-75
2021/09/22 01:24:43;;;;;;;24.10;11.07;;;;;;;;;;5052587;28;20430;-75
2021/09/22 01:27:09;;;;;;;25.23;10.68;;;;;;;;;;5052474;28;20065;-75
2021/09/22 01:29:34;;;;;;;23.45;11.27;;;;;;;;;;5052179;28;20060;-75
2021/09/22 01:32:00;;;;;;;32.70;13.02;;;;;;;;;;5052286;28;20048;-74
2021/09/22 01:34:25;;;;;;;29.77;11.20;;;;;;;;;;5052506;28;20054;-75
2021/09/22 01:36:50;;;;;;;30.10;12.30;;;;;;;;;;5052025;28;20428;-75
2021/09/22 01:39:15;;;;;;;27.05;11.57;;;;;;;;;;5055516;28;20021;-75
2021/09/22 01:41:41;;;;;;;23.60;11.13;;;;;;;;;;5056222;28;20132;-75
2021/09/22 01:44:06;;;;;;;26.73;12.07;;;;;;;;;;5056304;28;20029;-75
2021/09/22 01:46:31;;;;;;;32.33;12.60;;;;;;;;;;5056099;28;20025;-75
2021/09/22 01:48:57;;;;;;;31.00;12.80;;;;;;;;;;5056271;28;20063;-75
2021/09/22 01:51:22;;;;;;;32.63;13.15;;;;;;;;;;5055681;28;20044;-75
2021/09/22 01:53:48;;;;;;;24.23;11.13;;;;;;;;;;5055414;28;20377;-75
2021/09/22 01:56:13;;;;;;;27.95;12.45;;;;;;;;;;5055850;28;20033;-75
2021/09/22 01:58:38;;;;;;;25.35;11.85;;;;;;;;;;5055913;28;20040;-75
2021/09/22 02:01:09;;;;;;;36.35;12.40;;;;;;;;;;5055799;28;20394;-75
2021/09/22 02:03:34;;;;;;;24.48;11.23;;;;;;;;;;5056198;28;20032;-75
2021/09/22 02:06:00;;;;;;;36.72;12.93;;;;;;;;;;5055863;28;20043;-75
2021/09/22 02:08:25;;;;;;;30.42;12.20;;;;;;;;;;5055974;28;20139;-74
2021/09/22 02:10:50;;;;;;;21.95;10.30;;;;;;;;;;5055686;28;20033;-75
2021/09/22 02:13:16;;;;;;;22.65;10.73;;;;;;;;;;5056064;28;20029;-75
2021/09/22 02:15:41;;;;;;;23.55;11.02;;;;;;;;;;5055672;28;20064;-75
2021/09/22 02:18:08;;;;;;;29.15;12.10;;;;;;;;;;5055376;28;20033;-74
2021/09/22 02:20:33;;;;;;;29.77;13.18;;;;;;;;;;5055706;28;20044;-75
2021/09/22 02:22:58;;;;;;;30.60;12.15;;;;;;;;;;5055534;28;20381;-75
2021/09/22 02:25:24;;;;;;;28.75;12.05;;;;;;;;;;5055333;28;20469;-75
2021/09/22 02:27:49;;;;;;;40.58;13.43;;;;;;;;;;5053756;28;20029;-75
2021/09/22 02:30:19;;;;;;;36.92;13.70;;;;;;;;;;5055459;28;20458;-75
2021/09/22 02:32:44;;;;;;;21.95;11.65;;;;;;;;;;5055255;28;20053;-74
2021/09/22 02:35:10;;;;;;;32.45;12.88;;;;;;;;;;5055632;28;20032;-75
2021/09/22 02:37:36;;;;;;;26.40;11.70;;;;;;;;;;5055112;28;20040;-76
2021/09/22 02:40:02;;;;;;;32.08;12.27;;;;;;;;;;5054974;28;20104;-75
2021/09/22 02:42:28;;;;;;;31.27;12.15;;;;;;;;;;5055221;28;20033;-75
2021/09/22 02:44:53;;;;;;;36.90;12.10;;;;;;;;;;5055239;28;20514;-75
2021/09/22 02:47:21;;;;;;;25.88;12.20;;;;;;;;;;5055169;28;20032;-75
2021/09/22 02:49:46;;;;;;;50.20;14.75;;;;;;;;;;5054163;28;20025;-75
2021/09/22 02:52:12;;;;;;;30.63;13.20;;;;;;;;;;5055002;28;20458;-75
2021/09/22 02:54:37;;;;;;;25.02;11.65;;;;;;;;;;5054481;28;20127;-75
2021/09/22 02:57:03;;;;;;;26.95;11.35;;;;;;;;;;5054809;28;20112;-75
2021/09/22 02:59:28;;;;;;;29.35;13.27;;;;;;;;;;5054911;28;20017;-75
2021/09/22 03:01:53;;;;;;;28.23;12.18;;;;;;;;;;5054666;28;20385;-75
2021/09/22 03:04:18;;;;;;;26.08;11.77;;;;;;;;;;5055211;28;20064;-75
2021/09/22 03:06:44;;;;;;;31.67;12.40;;;;;;;;;;5054455;28;20064;-75
2021/09/22 03:09:09;;;;;;;25.58;11.55;;;;;;;;;;5054558;28;20037;-75
2021/09/22 03:11:35;;;;;;;37.50;12.98;;;;;;;;;;5054474;28;20044;-75
2021/09/22 03:14:00;;;;;;;30.60;11.52;;;;;;;;;;5054642;28;20017;-75
2021/09/22 03:16:25;;;;;;;24.92;10.68;;;;;;;;;;5054626;28;20032;-75
2021/09/22 03:18:51;;;;;;;29.40;12.23;;;;;;;;;;5054561;28;20036;-75
2021/09/22 03:21:16;;;;;;;32.03;12.68;;;;;;;;;;5054485;28;20060;-74
2021/09/22 03:23:41;;;;;;;29.05;11.68;;;;;;;;;;5054784;28;20029;-75
2021/09/22 03:26:07;;;;;;;38.65;11.98;;;;;;;;;;5054197;28;20025;-75
2021/09/22 03:28:32;;;;;;;27.10;11.82;;;;;;;;;;5054088;28;20024;-75
2021/09/22 03:30:58;;;;;;;29.63;13.30;;;;;;;;;;5054610;28;20059;-75
2021/09/22 03:33:23;;;;;;;36.70;12.77;;;;;;;;;;5054011;28;20049;-75
2021/09/22 03:35:48;;;;;;;34.70;13.32;;;;;;;;;;5054241;28;20021;-75
2021/09/22 03:38:13;;;;;;;28.15;12.68;;;;;;;;;;5054058;28;20094;-75
2021/09/22 03:40:39;;;;;;;20.92;11.70;;;;;;;;;;5054098;28;20041;-75
2021/09/22 03:43:05;;;;;;;36.00;14.50;;;;;;;;;;5053814;28;20370;-75
2021/09/22 03:45:31;;;;;;;36.47;13.77;;;;;;;;;;5054179;28;20539;-75
2021/09/22 03:47:56;;;;;;;28.48;12.63;;;;;;;;;;5053086;28;20029;-75
2021/09/22 03:50:22;;;;;;;30.92;13.20;;;;;;;;;;5053856;28;20072;-75
2021/09/22 03:52:47;;;;;;;31.13;12.43;;;;;;;;;;5053577;28;20033;-74
2021/09/22 03:55:12;;;;;;;24.58;11.43;;;;;;;;;;5053582;28;20288;-75
2021/09/22 03:57:38;;;;;;;38.10;12.18;;;;;;;;;;5053651;28;20053;-75
2021/09/22 04:00:04;;;;;;;34.50;12.18;;;;;;;;;;5053520;28;20029;-75
2021/09/22 04:02:29;;;;;;;35.67;13.50;;;;;;;;;;5053256;28;20393;-75
2021/09/22 04:04:54;;;;;;;43.28;14.10;;;;;;;;;;5053839;28;20025;-75
2021/09/22 04:07:19;;;;;;;34.17;12.48;;;;;;;;;;5052349;28;20044;-75
2021/09/22 04:09:45;;;;;;;32.17;12.27;;;;;;;;;;5053455;28;20029;-74
2021/09/22 04:12:10;;;;;;;35.60;12.60;;;;;;;;;;5053409;28;20043;-75
2021/09/22 04:14:35;;;;;;;35.42;12.82;;;;;;;;;;5053743;28;20052;-75
2021/09/22 04:17:01;;;;;;;34.33;12.70;;;;;;;;;;5053358;28;20025;-74
2021/09/22 04:19:26;;;;;;;36.50;12.13;;;;;;;;;;5053472;28;20063;-75
2021/09/22 04:21:51;;;;;;;39.97;14.18;;;;;;;;;;5053623;28;20039;-75
2021/09/22 04:24:17;;;;;;;30.50;12.63;;;;;;;;;;5053352;28;20389;-75
2021/09/22 04:26:42;;;;;;;34.33;13.35;;;;;;;;;;5053245;28;20100;-75
2021/09/22 04:29:08;;;;;;;35.00;12.73;;;;;;;;;;5053241;28;20087;-75
2021/09/22 04:31:33;;;;;;;32.72;12.95;;;;;;;;;;5053126;28;20459;-75
2021/09/22 04:33:59;;;;;;;36.10;12.18;;;;;;;;;;5052793;28;20045;-74
2021/09/22 04:36:25;;;;;;;33.33;13.00;;;;;;;;;;5053076;28;20028;-74
2021/09/22 04:38:50;;;;;;;29.55;12.85;;;;;;;;;;5053137;28;20037;-75
2021/09/22 04:41:16;;;;;;;53.25;15.23;;;;;;;;;;5052693;28;20032;-75
2021/09/22 04:43:41;;;;;;;44.08;14.90;;;;;;;;;;5052849;28;20098;-75
2021/09/22 04:46:07;;;;;;;40.47;14.40;;;;;;;;;;5053063;28;20085;-75
2021/09/22 04:48:33;;;;;;;35.28;13.30;;;;;;;;;;5052968;28;20021;-75
2021/09/22 04:50:58;;;;;;;43.95;14.30;;;;;;;;;;5052816;28;20036;-75
2021/09/22 04:53:23;;;;;;;44.25;13.98;;;;;;;;;;5052898;28;20029;-74
2021/09/22 04:55:49;;;;;;;37.15;13.32;;;;;;;;;;5053025;28;20018;-75
2021/09/22 04:58:14;;;;;;;38.72;13.60;;;;;;;;;;5052555;28;20037;-74
2021/09/22 05:00:40;;;;;;;28.15;11.70;;;;;;;;;;5052855;28;20040;-75
2021/09/22 05:03:05;;;;;;;38.95;13.77;;;;;;;;;;5052838;28;20096;-74
2021/09/22 05:05:31;;;;;;;31.85;12.23;;;;;;;;;;5052685;28;20117;-74
2021/09/22 05:07:57;;;;;;;29.38;11.55;;;;;;;;;;5052443;28;20068;-75
2021/09/22 05:10:22;;;;;;;34.67;13.02;;;;;;;;;;5052758;28;20024;-74
2021/09/22 05:12:47;;;;;;;43.30;12.48;;;;;;;;;;5053315;28;20431;-75
2021/09/22 05:15:13;;;;;;;43.40;13.25;;;;;;;;;;5056982;28;20040;-74
2021/09/22 05:17:38;;;;;;;43.67;13.55;;;;;;;;;;5056590;28;20025;-75
2021/09/22 05:20:04;;;;;;;47.03;14.13;;;;;;;;;;5056787;28;20124;-74
2021/09/22 05:22:30;;;;;;;49.30;14.02;;;;;;;;;;5056760;28;20072;-75
2021/09/22 05:24:55;;;;;;;35.78;12.38;;;;;;;;;;5056623;28;20024;-75
2021/09/22 05:27:21;;;;;;;38.28;12.68;;;;;;;;;;5056279;28;20037;-75
2021/09/22 05:29:46;;;;;;;37.63;11.65;;;;;;;;;;5056263;28;20043;-75
2021/09/22 05:32:12;;;;;;;52.88;12.88;;;;;;;;;;5056204;28;20032;-75
2021/09/22 05:34:38;;;;;;;55.47;13.95;;;;;;;;;;5056472;28;20055;-75
2021/09/22 05:37:03;;;;;;;34.50;10.90;;;;;;;;;;5056529;28;20462;-75
2021/09/22 05:39:28;;;;;;;49.13;14.50;;;;;;;;;;5056426;28;20017;-75
2021/09/22 05:41:54;;;;;;;53.45;14.02;;;;;;;;;;5056129;28;20381;-75
2021/09/22 05:44:19;;;;;;;41.90;12.15;;;;;;;;;;5055670;28;20448;-75
2021/09/22 05:46:44;;;;;;;35.58;12.13;;;;;;;;;;5056172;28;20025;-75
2021/09/22 05:49:09;;;;;;;35.40;11.75;;;;;;;;;;5056044;28;20032;-75
2021/09/22 05:51:35;;;;;;;35.22;13.15;;;;;;;;;;5055782;28;20072;-74
2021/09/22 05:54:00;;;;;;;39.00;12.15;;;;;;;;;;5055932;28;20036;-75
2021/09/22 05:56:26;;;;;;;38.55;12.10;;;;;;;;;;5056216;28;20032;-75
2021/09/22 05:58:51;;;;;;;58.17;14.27;;;;;;;;;;5055964;28;20535;-75
2021/09/22 06:01:16;;;;;;;57.00;14.25;;;;;;;;;;5056161;28;20021;-74
2021/09/22 06:03:42;;;;;;;36.10;12.90;;;;;;;;;;5055790;28;20037;-75
2021/09/22 06:06:07;;;;;;;49.70;14.20;;;;;;;;;;5055996;28;20029;-75
2021/09/22 06:08:32;;;;;;;48.17;14.15;;;;;;;;;;5055796;28;20078;-74
2021/09/22 06:10:58;;;;;;;52.13;14.48;;;;;;;;;;5055827;28;20043;-75
2021/09/22 06:13:23;;;;;;;61.90;14.90;;;;;;;;;;5055674;28;20032;-75
2021/09/22 06:15:51;;;;;;;54.38;15.30;;;;;;;;;;5055579;28;20454;-75
2021/09/22 06:18:16;;;;;;;47.78;13.57;;;;;;;;;;5055539;28;20036;-75
2021/09/22 06:20:42;;;;;;;45.58;14.05;;;;;;;;;;5055547;28;20117;-75
2021/09/22 06:23:07;;;;;;;25.83;9.93;;;;;;;;;;5055616;28;20048;-74
2021/09/22 06:25:32;;;;;;;31.63;11.75;;;;;;;;;;5054165;28;20063;-74
2021/09/22 06:27:59;;;;;;;33.35;11.80;;;;;;;;;;5055190;28;20071;-75
2021/09/22 06:30:25;;;;;;;34.80;11.70;;;;;;;;;;5055374;28;20021;-75
2021/09/22 06:32:51;;;;;;;58.42;14.07;;;;;;;;;;5055358;28;20424;-75
2021/09/22 06:35:16;;;;;;;38.47;11.55;;;;;;;;;;5055421;28;20033;-75
2021/09/22 06:37:41;;;;;;;35.05;12.02;;;;;;;;;;5055202;28;20414;-76
2021/09/22 06:40:07;;;;;;;34.72;12.13;;;;;;;;;;5055234;28;20044;-75
2021/09/22 06:42:32;;;;;;;45.42;12.93;;;;;;;;;;5054846;28;20470;-74
2021/09/22 06:44:57;;;;;;;37.15;10.70;;;;;;;;;;5055306;28;20060;-76
2021/09/22 06:47:23;;;;;;;86.78;15.15;;;;;;;;;;5055204;28;20060;-76
2021/09/22 06:49:49;;;;;;;91.63;15.07;;;;;;;;;;5055049;28;20029;-76
2021/09/22 06:52:14;;;;;;;371.50;29.60;;;;;;;;;;5054804;28;20036;-75
2021/09/22 06:54:39;;;;;;;42.55;11.25;;;;;;;;;;5054863;28;20426;-75
2021/09/22 06:57:05;;;;;;;1095.25;66.38;;;;;;;;;;5054830;28;20055;-75
2021/09/22 06:59:30;;;;;;;214.15;24.75;;;;;;;;;;5054944;28;20025;-75
2021/09/22 07:01:55;;;;;;;79.90;13.80;;;;;;;;;;5054923;28;20037;-75
2021/09/22 07:04:21;;;;;;;120.32;15.82;;;;;;;;;;5054682;28;20457;-75
2021/09/22 07:06:46;;;;;;;40.42;11.40;;;;;;;;;;5054523;28;20116;-75
2021/09/22 07:09:12;;;;;;;17.90;7.47;;;;;;;;;;5054711;28;20534;-77
2021/09/22 07:11:37;;;;;;;9.93;5.38;;;;;;;;;;5054286;28;20065;-77
2021/09/22 07:14:03;;;;;;;9.02;5.00;;;;;;;;;;5054621;28;20021;-77
2021/09/22 07:16:28;;;;;;;7.53;4.13;;;;;;;;;;5057946;28;20116;-76
2021/09/22 07:18:53;;;;;;;7.68;3.55;;;;;;;;;;5053928;28;20028;-75
2021/09/22 07:21:19;;;;;;;4.95;3.25;;;;;;;;;;5055869;28;20062;-76
2021/09/22 07:23:44;;;;;;;6.03;3.60;;;;;;;;;;5053825;28;20049;-76
2021/09/22 07:26:10;;;;;;;7.05;3.67;;;;;;;;;;5055132;28;20029;-75
2021/09/22 07:28:35;;;;;;;8.52;3.78;;;;;;;;;;5054730;28;20040;-75
2021/09/22 07:31:01;;;;;;;8.35;4.40;;;;;;;;;;5054721;28;20052;-76
2021/09/22 07:33:26;;;;;;;8.82;4.22;;;;;;;;;;5049774;28;20116;-75
2021/09/22 07:35:52;;;;;;;6.38;3.90;;;;;;;;;;5049060;28;20408;-76
2021/09/22 07:38:17;;;;;;;6.30;3.60;;;;;;;;;;5049768;28;20033;-76
2021/09/22 07:40:44;;;;;;;5.53;3.70;;;;;;;;;;5064606;28;20033;-75
2021/09/22 07:43:10;;;;;;;9.07;4.05;;;;;;;;;;5056430;28;20039;-76
2021/09/22 07:45:35;;;;;;;8.25;3.50;;;;;;;;;;5050774;28;20033;-75
2021/09/22 07:48:01;;;;;;;5.85;3.05;;;;;;;;;;5055858;28;20064;-76
2021/09/22 07:50:26;;;;;;;6.68;3.50;;;;;;;;;;5059285;28;20453;-77
2021/09/22 07:52:51;;;;;;;4.55;2.80;;;;;;;;;;5062766;28;20032;-75
2021/09/22 07:55:17;;;;;;;6.22;2.90;;;;;;;;;;5056662;28;20068;-76
2021/09/22 07:57:42;;;;;;;6.55;2.67;;;;;;;;;;5067370;28;20020;-75
2021/09/22 08:00:09;;;;;;;7.07;3.05;;;;;;;;;;5056408;28;20056;-75
2021/09/22 08:02:34;;;;;;;6.72;3.00;;;;;;;;;;5062704;28;20389;-76
2021/09/22 08:05:00;;;;;;;6.40;2.90;;;;;;;;;;5063764;28;20055;-76
2021/09/22 08:07:25;;;;;;;6.18;2.72;;;;;;;;;;5055229;28;20036;-77
2021/09/22 08:09:50;;;;;;;5.53;3.05;;;;;;;;;;5051546;28;20037;-76
2021/09/22 08:12:16;;;;;;;7.53;2.60;;;;;;;;;;5051415;28;20473;-79
2021/09/22 08:14:41;;;;;;;4.35;2.83;;;;;;;;;;5051722;28;20029;-77
2021/09/22 08:17:07;;;;;;;4.47;2.67;;;;;;;;;;5051313;28;20032;-76
2021/09/22 08:19:33;;;;;;;4.63;2.40;;;;;;;;;;5051095;28;20029;-76
2021/09/22 08:21:59;;;;;;;4.90;2.25;;;;;;;;;;5051131;28;20072;-76
2021/09/22 08:24:24;;;;;;;5.68;3.33;;;;;;;;;;5051379;28;20083;-80
2021/09/22 08:26:52;;;;;;;6.55;2.55;;;;;;;;;;5051744;28;20025;-76
2021/09/22 08:29:18;;;;;;;6.15;2.50;;;;;;;;;;5050897;28;20500;-77
2021/09/22 08:31:43;;;;;;;6.32;2.92;;;;;;;;;;5051017;28;20116;-77
2021/09/22 08:34:08;;;;;;;6.30;3.15;;;;;;;;;;5051039;28;20459;-77
2021/09/22 08:36:34;;;;;;;8.48;2.65;;;;;;;;;;5051360;28;20044;-77
2021/09/22 08:38:59;;;;;;;5.03;3.00;;;;;;;;;;5050568;28;20082;-78
2021/09/22 08:41:25;;;;;;;6.63;3.08;;;;;;;;;;5050878;28;20032;-74
2021/09/22 08:43:50;;;;;;;5.05;2.72;;;;;;;;;;5050882;28;20068;-74
2021/09/22 08:46:19;;;;;;;9.18;3.13;;;;;;;;;;5046250;28;20081;-75
2021/09/22 08:48:44;;;;;;;6.47;3.47;;;;;;;;;;5047586;28;20414;-77
2021/09/22 08:51:10;;;;;;;6.13;3.47;;;;;;;;;;5047412;28;20083;-75
2021/09/22 08:53:35;;;;;;;5.07;2.85;;;;;;;;;;5047780;28;20397;-76
2021/09/22 08:56:02;;;;;;;6.53;3.47;;;;;;;;;;5048604;28;20408;-75
2021/09/22 08:58:27;;;;;;;9.27;2.70;;;;;;;;;;5048345;28;20067;-75
2021/09/22 09:00:52;;;;;;;6.45;3.28;;;;;;;;;;5049270;28;20060;-75
2021/09/22 09:03:31;;;;;;;4.70;2.95;;;;;;;;;;5046237;28;20017;-78
2021/09/22 09:06:35;;;;;;;7.45;3.03;;;;;;;;;;5045963;28;20090;-75
2021/09/22 09:09:01;;;;;;;9.05;3.40;;;;;;;;;;5005079;28;20022;-75
2021/09/22 09:11:30;;;;;;;8.05;3.70;;;;;;;;;;5038322;28;20052;-76
2021/09/22 09:13:57;;;;;;;6.47;3.08;;;;;;;;;;5046745;28;20027;-75
2021/09/22 09:16:23;;;;;;;11.73;3.22;;;;;;;;;;5046140;28;20539;-79
2021/09/22 09:18:53;;;;;;;7.75;3.35;;;;;;;;;;5045395;28;20482;-74
2021/09/22 09:21:18;;;;;;;7.40;3.30;;;;;;;;;;5047022;28;20056;-80
2021/09/22 09:23:51;;;;;;;8.18;3.28;;;;;;;;;;5047116;28;20433;-78
2021/09/22 09:26:19;;;;;;;7.20;3.13;;;;;;;;;;5044277;28;20120;-78
2021/09/22 09:28:47;;;;;;;6.32;3.08;;;;;;;;;;5046205;28;20023;-77
2021/09/22 09:31:13;;;;;;;7.07;3.47;;;;;;;;;;5046604;28;20482;-77
2021/09/22 09:33:40;;;;;;;7.15;3.20;;;;;;;;;;5046020;28;20077;-76
2021/09/22 09:36:25;;;;;;;7.53;3.75;;;;;;;;;;5047757;28;20033;-76
2021/09/22 09:38:52;;;;;;;10.10;3.58;;;;;;;;;;5040984;28;20503;-79
2021/09/22 09:41:21;;;;;;;6.78;3.33;;;;;;;;;;5040732;28;20039;-78
2021/09/22 09:43:47;;;;;;;8.48;3.60;;;;;;;;;;5045511;28;20068;-77
2021/09/22 09:46:20;;;;;;;7.30;3.35;;;;;;;;;;5045460;28;20021;-77
2021/09/22 09:48:53;;;;;;;7.90;3.50;;;;;;;;;;5043756;28;20025;-77
2021/09/22 09:51:18;;;;;;;9.20;3.67;;;;;;;;;;5046448;28;20043;-77
2021/09/22 09:53:43;;;;;;;9.40;3.83;;;;;;;;;;5046155;28;20025;-78
2021/09/22 09:56:17;;;;;;;7.97;3.65;;;;;;;;;;5036719;28;20100;-80
2021/09/22 09:58:44;;;;;;;7.60;4.20;;;;;;;;;;5043509;28;20037;-77
2021/09/22 10:01:09;;;;;;;5.80;3.55;;;;;;;;;;5049824;28;20028;-81
2021/09/22 10:03:35;;;;;;;13.38;4.30;;;;;;;;;;5049324;28;20029;-79
2021/09/22 10:06:01;;;;;;;7.20;3.38;;;;;;;;;;5044453;28;20044;-77
2021/09/22 10:08:28;;;;;;;7.15;3.33;;;;;;;;;;5049515;28;20021;-78
2021/09/22 10:10:56;;;;;;;7.30;3.20;;;;;;;;;;5049929;28;20045;-76
2021/09/22 10:13:22;;;;;;;7.50;3.47;;;;;;;;;;5048051;28;20397;-77
2021/09/22 10:15:48;;;;;;;7.60;3.42;;;;;;;;;;5050677;28;20017;-79
2021/09/22 10:18:14;;;;;;;9.23;3.72;;;;;;;;;;5050029;28;20029;-76
2021/09/22 10:20:40;;;;;;;8.00;3.85;;;;;;;;;;5048883;28;20132;-76
2021/09/22 10:23:06;;;;;;;8.27;4.00;;;;;;;;;;5049955;28;20032;-76
2021/09/22 10:25:32;;;;;;;13.60;5.18;;;;;;;;;;5049493;28;20033;-77
2021/09/22 10:27:57;;;;;;;9.10;4.32;;;;;;;;;;5049656;28;20025;-77
2021/09/22 10:30:31;;;;;;;6.35;4.20;;;;;;;;;;5049921;28;20074;-75
2021/09/22 10:32:57;;;;;;;11.73;5.00;;;;;;;;;;5043736;28;20496;-76
2021/09/22 10:35:25;;;;;;;10.02;4.10;;;;;;;;;;5050114;28;20029;-76
2021/09/22 10:37:54;;;;;;;7.00;4.10;;;;;;;;;;5049538;28;20021;-77
2021/09/22 10:40:39;;;;;;;10.07;4.38;;;;;;;;;;5049484;28;20025;-76
2021/09/22 10:43:14;;;;;;;8.85;4.30;;;;;;;;;;5049490;28;20505;-78
2021/09/22 10:45:39;;;;;;;12.50;4.65;;;;;;;;;;5050048;28;20036;-77
2021/09/22 10:48:23;;;;;;;10.77;4.47;;;;;;;;;;5051797;28;20036;-78
2021/09/22 10:50:50;;;;;;;9.40;4.35;;;;;;;;;;5052166;28;20037;-77
2021/09/22 10:53:34;;;;;;;9.60;5.20;;;;;;;;;;5052650;28;20025;-76
2021/09/22 10:55:59;;;;;;;14.90;5.50;;;;;;;;;;5052687;28;20029;-76
2021/09/22 10:58:30;;;;;;;10.35;4.80;;;;;;;;;;5051915;28;20373;-75
2021/09/22 11:00:56;;;;;;;7.18;3.63;;;;;;;;;;5051718;28;20151;-76
2021/09/22 11:03:41;;;;;;;9.90;3.75;;;;;;;;;;5051618;28;20017;-75
2021/09/22 11:06:27;;;;;;;4.72;2.60;;;;;;;;;;5052355;28;20095;-75
2021/09/22 11:09:02;;;;;;;6.35;3.42;;;;;;;;;;5050603;28;20036;-76
2021/09/22 11:11:47;;;;;;;6.35;3.67;;;;;;;;;;5050072;28;20047;-75
2021/09/22 11:14:31;;;;;;;7.22;3.92;;;;;;;;;;5051293;28;20036;-75
2021/09/22 11:17:00;;;;;;;7.22;4.07;;;;;;;;;;5051074;28;20037;-75
2021/09/22 11:19:26;;;;;;;10.65;3.80;;;;;;;;;;5051046;28;20147;-75
2021/09/22 11:21:51;;;;;;;4.65;3.33;;;;;;;;;;5050723;28;20021;-76
2021/09/22 11:24:20;;;;;;;7.05;3.25;;;;;;;;;;5051840;28;20075;-76
2021/09/22 11:26:50;;;;;;;7.50;3.20;;;;;;;;;;5050717;28;20402;-77
2021/09/22 11:29:34;;;;;;;6.28;3.22;;;;;;;;;;5051066;28;20021;-75
2021/09/22 11:32:00;;;;;;;7.30;4.47;;;;;;;;;;5050345;28;20041;-76
2021/09/22 11:34:26;;;;;;;6.47;3.65;;;;;;;;;;5051262;28;20033;-76
2021/09/22 11:37:11;;;;;;;4.78;2.53;;;;;;;;;;5051468;28;20056;-76
2021/09/22 11:39:37;;;;;;;3.40;2.10;;;;;;;;;;5051078;28;20044;-76
2021/09/22 11:42:03;;;;;;;6.00;2.88;;;;;;;;;;5051995;28;20040;-75
2021/09/22 11:44:29;;;;;;;3.53;2.03;;;;;;;;;;5052229;28;20090;-74
2021/09/22 11:46:57;;;;;;;7.10;2.55;;;;;;;;;;5053549;28;20033;-75
2021/09/22 11:49:29;;;;;;;4.43;2.50;;;;;;;;;;5046337;28;20451;-75
2021/09/22 11:52:05;;;;;;;5.57;2.55;;;;;;;;;;5051062;28;20048;-75
2021/09/22 11:54:30;;;;;;;5.35;2.65;;;;;;;;;;5051171;28;20090;-75
2021/09/22 11:57:05;;;;;;;6.13;2.53;;;;;;;;;;5039567;28;20025;-77
2021/09/22 11:59:32;;;;;;;6.07;2.70;;;;;;;;;;5051209;28;20102;-75
2021/09/22 12:01:57;;;;;;;5.28;3.10;;;;;;;;;;5047225;28;20485;-76
2021/09/22 12:04:23;;;;;;;3.92;2.75;;;;;;;;;;5052188;28;20087;-75
2021/09/22 12:06:48;;;;;;;4.72;2.97;;;;;;;;;;5052050;28;20021;-75
2021/09/22 12:09:13;;;;;;;4.28;2.80;;;;;;;;;;5051071;28;20055;-75
2021/09/22 12:11:38;;;;;;;5.93;3.00;;;;;;;;;;5050841;28;20049;-75
2021/09/22 12:14:04;;;;;;;4.88;2.90;;;;;;;;;;5050511;28;20017;-75
2021/09/22 12:16:29;;;;;;;8.77;3.90;;;;;;;;;;5051700;28;20501;-75
2021/09/22 12:18:58;;;;;;;5.20;3.20;;;;;;;;;;5050000;28;20040;-75
2021/09/22 12:21:24;;;;;;;6.22;3.35;;;;;;;;;;5050719;28;20031;-79
2021/09/22 12:23:50;;;;;;;5.88;3.70;;;;;;;;;;5046645;28;20033;-75
2021/09/22 12:26:15;;;;;;;6.25;3.97;;;;;;;;;;5051037;28;20033;-75
2021/09/22 12:28:41;;;;;;;7.13;4.38;;;;;;;;;;5051146;28;20028;-75
2021/09/22 12:31:20;;;;;;;6.05;4.00;;;;;;;;;;5050553;28;20041;-75
2021/09/22 12:33:46;;;;;;;5.60;3.78;;;;;;;;;;5050487;28;20068;-76
2021/09/22 12:36:13;;;;;;;5.93;3.83;;;;;;;;;;5051072;28;20037;-75
2021/09/22 12:38:42;;;;;;;7.32;4.70;;;;;;;;;;5050614;28;20485;-75
2021/09/22 12:41:08;;;;;;;6.78;4.50;;;;;;;;;;5050754;28;20025;-75
2021/09/22 12:43:33;;;;;;;7.35;4.57;;;;;;;;;;5050258;28;20032;-75
2021/09/22 12:46:05;;;;;;;8.38;3.53;;;;;;;;;;5050116;28;20504;-76
2021/09/22 12:48:30;;;;;;;6.80;4.07;;;;;;;;;;5050941;28;20021;-77
2021/09/22 12:50:56;;;;;;;6.10;3.90;;;;;;;;;;5050935;28;20102;-75
2021/09/22 12:53:21;;;;;;;7.47;3.35;;;;;;;;;;5049718;28;20037;-76
2021/09/22 12:55:48;;;;;;;4.82;3.30;;;;;;;;;;5050144;28;20060;-75
2021/09/22 12:58:21;;;;;;;8.90;5.50;;;;;;;;;;5050086;28;20448;-75
2021/09/22 13:00:56;;;;;;;8.75;5.07;;;;;;;;;;5050348;28;20033;-78
2021/09/22 13:03:34;;;;;;;8.27;5.45;;;;;;;;;;5050332;28;20032;-76
2021/09/22 13:06:09;;;;;;;10.40;5.53;;;;;;;;;;5047762;28;20143;-76
2021/09/22 13:08:34;;;;;;;;;;;;;;;;;;5046949;28;20041;-75
2021/09/22 13:11:03;;;;;;;14.00;5.55;;;;;;;;;;5050690;28;19913;-74
2021/09/22 13:13:39;;;;;;;12.07;5.80;;;;;;;;;;5049422;28;20090;-74
2021/09/22 13:16:10;;;;;;;9.27;4.93;;;;;;;;;;5047626;28;20484;-76
2021/09/22 13:18:36;;;;;;;7.50;4.47;;;;;;;;;;5050377;28;20040;-75
2021/09/22 13:21:01;;;;;;;7.20;4.65;;;;;;;;;;5050376;28;20013;-76
2021/09/22 13:23:26;;;;;;;8.95;4.78;;;;;;;;;;5049707;28;20470;-76
2021/09/22 13:25:51;;;;;;;9.48;4.03;;;;;;;;;;5051010;28;20140;-75
2021/09/22 13:28:17;;;;;;;10.88;4.65;;;;;;;;;;5050828;28;20027;-75
2021/09/22 13:30:42;;;;;;;9.60;4.50;;;;;;;;;;5049908;28;20036;-74
2021/09/22 13:33:08;;;;;;;8.50;3.53;;;;;;;;;;5049770;28;20055;-75
2021/09/22 13:35:33;;;;;;;7.68;3.85;;;;;;;;;;5053680;28;20096;-76
2021/09/22 13:37:58;;;;;;;8.88;3.70;;;;;;;;;;5053673;28;20087;-77
2021/09/22 13:40:24;;;;;;;8.93;3.97;;;;;;;;;;5054378;28;20033;-75
2021/09/22 13:42:49;;;;;;;10.30;4.55;;;;;;;;;;5053823;28;20131;-75
2021/09/22 13:45:14;;;;;;;7.70;3.28;;;;;;;;;;5053723;28;20384;-75
2021/09/22 13:47:40;;;;;;;8.40;3.70;;;;;;;;;;5052124;28;20094;-74
2021/09/22 13:50:05;;;;;;;12.52;3.50;;;;;;;;;;5054445;28;20540;-75
2021/09/22 13:52:30;;;;;;;7.55;3.40;;;;;;;;;;5053923;28;20041;-74
2021/09/22 13:54:56;;;;;;;9.82;3.97;;;;;;;;;;5053390;28;20469;-76
2021/09/22 13:57:21;;;;;;;7.07;3.55;;;;;;;;;;5053571;28;20025;-75
2021/09/22 13:59:46;;;;;;;7.10;3.50;;;;;;;;;;5053925;28;21358;-75
2021/09/22 14:02:11;;;;;;;10.63;4.00;;;;;;;;;;5053823;28;20119;-75
2021/09/22 14:04:37;;;;;;;10.13;3.47;;;;;;;;;;5052789;28;20013;-75
2021/09/22 14:07:02;;;;;;;10.90;3.58;;;;;;;;;;5053169;28;20068;-76
2021/09/22 14:09:27;;;;;;;13.02;3.55;;;;;;;;;;5052567;28;20547;-75
2021/09/22 14:11:53;;;;;;;5.85;3.40;;;;;;;;;;5052531;28;20041;-75
2021/09/22 14:14:18;;;;;;;8.70;3.88;;;;;;;;;;5053243;28;20575;-76
2021/09/22 14:16:43;;;;;;;9.18;3.40;;;;;;;;;;5053924;28;20025;-74
2021/09/22 14:19:08;;;;;;;10.25;4.93;;;;;;;;;;5052736;28;20021;-75
2021/09/22 14:21:34;;;;;;;9.63;3.60;;;;;;;;;;5053340;28;20161;-75
2021/09/22 14:23:59;;;;;;;6.80;3.70;;;;;;;;;;5052992;28;20115;-74
2021/09/22 14:26:24;;;;;;;9.15;4.50;;;;;;;;;;5053338;28;20031;-75